createdAt,value
2022-12-31T00:01:43.575Z,1.85
2022-12-31T00:03:49.249Z,2.78
2022-12-31T00:05:54.123Z,3.08
2022-12-31T00:07:58.881Z,1.83
2022-12-31T00:10:06.915Z,1.50
2022-12-31T00:12:11.804Z,3.72
2022-12-31T00:14:16.690Z,3.08
2022-12-31T00:16:23.560Z,1.38
2022-12-31T00:18:28.803Z,1.95
2022-12-31T00:20:33.934Z,1.42
2022-12-31T00:22:38.751Z,2.13
2022-12-31T00:24:43.654Z,3.40
2022-12-31T00:26:51.119Z,2.80
2022-12-31T00:28:57.484Z,2.63
2022-12-31T00:31:12.114Z,2.28
2022-12-31T00:33:16.900Z,1.80
2022-12-31T00:35:21.755Z,1.42
2022-12-31T00:37:26.683Z,1.42
2022-12-31T00:39:31.738Z,1.33
2022-12-31T00:41:37.180Z,0.95
2022-12-31T00:43:45.066Z,0.90
2022-12-31T00:45:49.967Z,1.65
2022-12-31T00:47:54.820Z,4.63
2022-12-31T00:49:59.650Z,0.82
2022-12-31T00:52:04.603Z,0.70
2022-12-31T00:54:10.210Z,1.45
2022-12-31T00:56:17.297Z,0.70
2022-12-31T00:58:22.212Z,0.82
2022-12-31T01:00:29.745Z,0.70
2022-12-31T01:02:35.678Z,0.82
2022-12-31T01:04:40.682Z,1.10
2022-12-31T01:06:46.292Z,0.95
2022-12-31T01:08:52.436Z,3.17
2022-12-31T01:11:09.782Z,1.27
2022-12-31T01:13:14.717Z,1.58
2022-12-31T01:15:19.716Z,0.93
2022-12-31T01:17:27.202Z,3.45
2022-12-31T01:19:32.797Z,0.68
2022-12-31T01:21:39.685Z,3.00
2022-12-31T01:23:45.214Z,1.20
2022-12-31T01:25:50.156Z,0.95
2022-12-31T01:27:55.019Z,1.08
2022-12-31T01:29:59.937Z,0.40
2022-12-31T01:32:06.019Z,5.70
2022-12-31T01:34:13.646Z,0.65
2022-12-31T01:36:25.509Z,1.85
2022-12-31T01:38:30.890Z,0.95
2022-12-31T01:40:39.992Z,0.63
2022-12-31T01:42:47.674Z,2.05
2022-12-31T01:44:55.793Z,1.55
2022-12-31T01:47:03.636Z,1.45
2022-12-31T01:49:19.788Z,1.20
2022-12-31T01:51:25.403Z,0.38
2022-12-31T01:53:30.957Z,0.73
2022-12-31T01:55:39.243Z,0.75
2022-12-31T01:57:46.791Z,0.75
2022-12-31T01:59:52.005Z,0.65
2022-12-31T02:04:07.126Z,0.93
2022-12-31T02:06:19.883Z,0.35
2022-12-31T02:08:24.992Z,3.78
2022-12-31T02:12:34.938Z,0.65
2022-12-31T02:14:43.045Z,0.80
2022-12-31T02:17:00.455Z,1.90
2022-12-31T02:19:21.475Z,0.75
2022-12-31T02:21:44.482Z,1.05
2022-12-31T02:24:19.021Z,0.75
2022-12-31T02:26:40.389Z,0.77
2022-12-31T02:29:09.795Z,0.45
2022-12-31T02:31:21.508Z,0.95
2022-12-31T02:33:32.844Z,0.60
2022-12-31T02:35:46.167Z,0.40
2022-12-31T02:37:55.510Z,0.47
2022-12-31T02:40:01.358Z,3.92
2022-12-31T02:42:06.663Z,1.33
2022-12-31T02:44:24.951Z,0.70
2022-12-31T02:46:38.222Z,1.08
2022-12-31T02:48:55.812Z,0.43
2022-12-31T02:51:14.536Z,0.50
2022-12-31T02:53:33.412Z,1.45
2022-12-31T02:55:48.124Z,1.38
2022-12-31T02:57:59.859Z,1.15
2022-12-31T03:00:21.623Z,0.38
2022-12-31T03:02:32.665Z,0.63
2022-12-31T03:04:38.802Z,2.45
2022-12-31T03:06:45.017Z,0.47
2022-12-31T03:09:02.129Z,1.15
2022-12-31T03:11:27.203Z,1.73
2022-12-31T03:13:29.377Z,2.30
2022-12-31T03:15:36.356Z,0.82
2022-12-31T03:17:43.713Z,0.95
2022-12-31T03:20:01.131Z,1.00
2022-12-31T03:22:18.473Z,1.02
2022-12-31T03:24:38.245Z,0.80
2022-12-31T03:26:43.155Z,0.85
2022-12-31T03:28:48.611Z,1.02
2022-12-31T03:30:55.586Z,0.88
2022-12-31T03:33:03.962Z,1.15
2022-12-31T03:35:10.669Z,2.72
2022-12-31T03:37:15.550Z,1.00
2022-12-31T03:39:20.350Z,2.53
2022-12-31T03:41:25.231Z,0.95
2022-12-31T03:43:30.039Z,1.05
2022-12-31T03:45:34.848Z,0.85
2022-12-31T03:47:41.513Z,1.25
2022-12-31T03:49:50.334Z,1.23
2022-12-31T03:51:55.106Z,0.88
2022-12-31T03:53:59.943Z,0.43
2022-12-31T03:56:04.731Z,1.02
2022-12-31T03:58:09.604Z,2.03
2022-12-31T04:00:18.059Z,1.02
2022-12-31T04:02:28.258Z,1.58
2022-12-31T04:04:34.022Z,1.33
2022-12-31T04:06:41.478Z,0.65
2022-12-31T04:08:46.412Z,0.57
2022-12-31T04:10:51.388Z,0.50
2022-12-31T04:12:56.263Z,0.60
2022-12-31T04:15:01.438Z,0.60
2022-12-31T04:19:10.912Z,1.02
2022-12-31T04:21:15.674Z,0.65
2022-12-31T04:23:23.145Z,0.95
2022-12-31T04:25:27.939Z,0.80
2022-12-31T04:27:32.809Z,0.70
2022-12-31T04:29:38.977Z,1.05
2022-12-31T04:31:43.935Z,1.15
2022-12-31T04:33:48.758Z,0.73
2022-12-31T04:35:53.651Z,0.70
2022-12-31T04:37:58.440Z,1.52
2022-12-31T04:40:06.976Z,1.08
2022-12-31T04:42:12.674Z,1.63
2022-12-31T04:44:17.847Z,0.50
2022-12-31T04:48:28.737Z,0.77
2022-12-31T04:50:33.499Z,0.50
2022-12-31T04:52:42.763Z,0.50
2022-12-31T04:54:47.879Z,1.17
2022-12-31T04:56:55.336Z,2.47
2022-12-31T04:59:00.520Z,0.75
2022-12-31T05:01:07.958Z,3.10
2022-12-31T05:03:12.970Z,0.93
2022-12-31T05:05:17.969Z,0.93
2022-12-31T05:07:22.756Z,0.43
2022-12-31T05:09:28.457Z,0.90
2022-12-31T05:11:33.377Z,0.70
2022-12-31T05:13:41.148Z,0.95
2022-12-31T05:15:46.112Z,0.63
2022-12-31T05:17:50.977Z,0.77
2022-12-31T05:19:55.743Z,0.90
2022-12-31T05:22:13.044Z,1.48
2022-12-31T05:24:17.886Z,1.00
2022-12-31T05:26:22.794Z,2.38
2022-12-31T05:28:27.818Z,2.13
2022-12-31T05:30:35.217Z,1.10
2022-12-31T05:32:40.216Z,1.70
2022-12-31T05:36:50.132Z,1.30
2022-12-31T05:38:54.970Z,0.70
2022-12-31T05:41:03.922Z,1.65
2022-12-31T05:43:09.081Z,2.17
2022-12-31T05:45:16.025Z,3.10
2022-12-31T05:47:23.984Z,1.05
2022-12-31T05:49:28.757Z,1.88
2022-12-31T05:51:33.593Z,1.10
2022-12-31T05:53:38.467Z,2.22
2022-12-31T05:55:43.342Z,1.73
2022-12-31T05:57:51.045Z,1.75
2022-12-31T05:59:55.932Z,2.40
2022-12-31T06:02:00.833Z,0.93
2022-12-31T06:04:08.476Z,0.73
2022-12-31T06:06:13.372Z,1.67
2022-12-31T06:08:18.183Z,2.83
2022-12-31T06:10:23.050Z,4.53
2022-12-31T06:12:27.946Z,1.55
2022-12-31T06:14:32.721Z,1.50
2022-12-31T06:16:37.777Z,1.40
2022-12-31T06:18:42.587Z,0.93
2022-12-31T06:20:50.020Z,0.70
2022-12-31T06:22:54.959Z,2.08
2022-12-31T06:24:59.761Z,1.55
2022-12-31T06:27:04.555Z,1.35
2022-12-31T06:29:09.362Z,1.42
2022-12-31T06:31:15.638Z,1.00
2022-12-31T06:33:20.507Z,0.98
2022-12-31T06:35:25.648Z,1.15
2022-12-31T06:39:37.980Z,0.63
2022-12-31T06:41:42.863Z,0.70
2022-12-31T06:43:48.021Z,0.73
2022-12-31T06:45:52.957Z,1.30
2022-12-31T06:47:57.975Z,1.13
2022-12-31T06:50:02.880Z,0.73
2022-12-31T06:52:08.444Z,1.77
2022-12-31T06:54:16.256Z,0.80
2022-12-31T06:56:31.377Z,0.88
2022-12-31T06:58:39.235Z,0.90
2022-12-31T07:00:53.353Z,2.58
2022-12-31T07:03:20.585Z,1.15
2022-12-31T07:05:35.054Z,1.58
2022-12-31T07:07:52.888Z,0.57
2022-12-31T07:10:08.658Z,1.13
2022-12-31T07:12:21.771Z,0.60
2022-12-31T07:14:34.746Z,1.08
2022-12-31T07:16:52.692Z,0.90
2022-12-31T07:19:06.517Z,0.98
2022-12-31T07:21:16.232Z,1.38
2022-12-31T07:23:21.869Z,1.92
2022-12-31T07:25:30.249Z,0.88
2022-12-31T07:27:53.228Z,1.08
2022-12-31T07:30:09.303Z,0.85
2022-12-31T07:32:28.953Z,0.52
2022-12-31T07:34:44.815Z,2.53
2022-12-31T07:37:02.592Z,2.67
2022-12-31T07:39:13.443Z,1.88
2022-12-31T07:41:32.716Z,4.43
2022-12-31T07:43:45.409Z,1.13
2022-12-31T07:45:55.652Z,0.85
2022-12-31T07:48:02.977Z,1.73
2022-12-31T07:50:17.930Z,0.70
2022-12-31T07:52:24.098Z,2.97
2022-12-31T07:54:28.968Z,0.60
2022-12-31T07:56:36.709Z,2.00
2022-12-31T07:59:06.939Z,0.95
2022-12-31T08:01:14.700Z,1.83
2022-12-31T08:03:37.110Z,2.63
2022-12-31T08:05:52.415Z,2.50
2022-12-31T08:08:06.655Z,1.35
2022-12-31T08:10:18.397Z,1.25
2022-12-31T08:12:27.645Z,1.42
2022-12-31T08:14:33.286Z,1.58
2022-12-31T08:16:38.857Z,0.82
2022-12-31T08:18:44.807Z,0.70
2022-12-31T08:20:58.711Z,0.93
2022-12-31T08:23:24.162Z,1.48
2022-12-31T08:25:36.068Z,1.00
2022-12-31T08:27:49.616Z,1.02
2022-12-31T08:30:12.733Z,3.60
2022-12-31T08:32:24.645Z,1.60
2022-12-31T08:34:36.521Z,1.48
2022-12-31T08:36:50.678Z,0.88
2022-12-31T08:39:03.278Z,2.13
2022-12-31T08:41:19.342Z,1.70
2022-12-31T08:43:43.860Z,0.80
2022-12-31T08:45:51.717Z,2.78
2022-12-31T08:48:06.993Z,1.80
2022-12-31T08:50:17.290Z,1.98
2022-12-31T08:52:26.674Z,1.42
2022-12-31T08:54:32.473Z,2.17
2022-12-31T08:56:46.009Z,3.55
2022-12-31T08:59:06.758Z,1.55
2022-12-31T09:01:12.301Z,1.25
2022-12-31T09:03:38.852Z,1.98
2022-12-31T09:08:11.821Z,0.85
2022-12-31T09:10:23.717Z,1.58
2022-12-31T09:12:38.294Z,1.80
2022-12-31T09:14:51.195Z,1.45
2022-12-31T09:17:07.927Z,1.45
2022-12-31T09:19:13.207Z,1.27
2022-12-31T09:21:19.060Z,1.40
2022-12-31T09:23:24.687Z,2.33
2022-12-31T09:25:31.378Z,2.13
2022-12-31T09:27:43.997Z,0.80
2022-12-31T09:30:04.119Z,1.73
2022-12-31T09:32:16.881Z,0.90
2022-12-31T09:34:27.949Z,2.33
2022-12-31T09:36:35.208Z,1.30
2022-12-31T09:38:46.378Z,1.02
2022-12-31T09:41:16.899Z,0.75
2022-12-31T09:43:59.014Z,2.03
2022-12-31T09:46:52.309Z,0.82
2022-12-31T09:49:24.585Z,0.50
2022-12-31T09:51:34.752Z,1.05
2022-12-31T09:53:43.972Z,2.67
2022-12-31T09:55:55.622Z,3.72
2022-12-31T09:58:09.858Z,2.65
2022-12-31T10:00:22.025Z,3.00
2022-12-31T10:02:45.321Z,12.07
2022-12-31T10:05:15.613Z,3.88
2022-12-31T10:07:35.255Z,1.80
2022-12-31T10:09:57.320Z,1.88
2022-12-31T10:12:26.661Z,1.23
2022-12-31T10:14:50.441Z,0.93
2022-12-31T10:17:12.178Z,1.35
2022-12-31T10:19:54.635Z,1.33
2022-12-31T10:22:11.073Z,1.65
2022-12-31T10:24:37.343Z,0.90
2022-12-31T10:27:07.698Z,2.63
2022-12-31T10:29:24.698Z,0.93
2022-12-31T10:31:41.102Z,0.75
2022-12-31T10:33:48.932Z,2.17
2022-12-31T10:36:00.995Z,1.45
2022-12-31T10:38:19.076Z,1.70
2022-12-31T10:40:35.742Z,2.05
2022-12-31T10:43:24.030Z,1.05
2022-12-31T10:46:01.661Z,5.57
2022-12-31T10:48:32.926Z,3.45
2022-12-31T10:51:07.226Z,1.83
2022-12-31T10:53:35.127Z,4.88
2022-12-31T10:56:14.229Z,3.13
2022-12-31T10:58:48.572Z,4.03
2022-12-31T11:01:01.604Z,3.47
2022-12-31T11:03:36.291Z,1.92
2022-12-31T11:06:27.683Z,4.20
2022-12-31T11:08:56.742Z,3.88
2022-12-31T11:11:24.851Z,3.00
2022-12-31T11:14:02.250Z,3.15
2022-12-31T11:16:24.631Z,5.13
2022-12-31T11:18:39.914Z,2.25
2022-12-31T11:21:09.887Z,4.68
2022-12-31T11:23:27.211Z,4.18
2022-12-31T11:25:50.640Z,3.38
2022-12-31T11:28:25.359Z,13.15
2022-12-31T11:30:40.240Z,2.72
2022-12-31T11:32:57.238Z,2.25
2022-12-31T11:35:23.891Z,2.28
2022-12-31T11:37:44.350Z,2.50
2022-12-31T11:39:56.983Z,1.50
2022-12-31T11:42:13.996Z,2.50
2022-12-31T11:44:37.979Z,2.40
2022-12-31T11:47:12.593Z,2.50
2022-12-31T11:49:35.879Z,2.10
2022-12-31T11:51:59.708Z,2.35
2022-12-31T11:54:38.145Z,2.85
2022-12-31T11:56:55.826Z,3.72
2022-12-31T11:59:06.193Z,3.65
2022-12-31T12:01:20.635Z,2.08
2022-12-31T12:03:26.296Z,2.60
2022-12-31T12:05:34.249Z,1.58
2022-12-31T12:07:39.194Z,1.10
2022-12-31T12:09:48.723Z,1.58
2022-12-31T12:12:01.615Z,1.00
2022-12-31T12:14:21.956Z,1.67
2022-12-31T12:16:29.836Z,1.90
2022-12-31T12:18:40.842Z,2.50
2022-12-31T12:20:49.250Z,3.65
2022-12-31T12:22:56.456Z,3.28
2022-12-31T12:25:07.976Z,1.63
2022-12-31T12:27:27.391Z,1.67
2022-12-31T12:29:34.892Z,1.75
2022-12-31T12:31:41.771Z,1.58
2022-12-31T12:33:48.508Z,1.05
2022-12-31T12:35:53.655Z,2.15
2022-12-31T12:40:21.306Z,1.20
2022-12-31T12:42:26.613Z,4.05
2022-12-31T12:44:31.571Z,3.38
2022-12-31T12:46:41.343Z,1.92
2022-12-31T12:48:52.242Z,1.27
2022-12-31T12:50:57.438Z,1.83
2022-12-31T12:53:31.776Z,1.52
2022-12-31T12:55:49.709Z,4.30
2022-12-31T12:58:06.941Z,2.10
2022-12-31T13:00:19.355Z,1.33
2022-12-31T13:02:49.451Z,1.27
2022-12-31T13:05:10.033Z,1.23
2022-12-31T13:07:27.559Z,2.33
2022-12-31T13:09:49.250Z,3.63
2022-12-31T13:12:08.123Z,3.40
2022-12-31T13:14:23.599Z,3.55
2022-12-31T13:16:37.563Z,3.53
2022-12-31T13:18:51.524Z,2.15
2022-12-31T13:21:02.991Z,3.38
2022-12-31T13:23:19.880Z,2.42
2022-12-31T13:25:32.486Z,2.38
2022-12-31T13:27:44.752Z,2.90
2022-12-31T13:29:51.273Z,2.70
2022-12-31T13:32:00.166Z,2.58
2022-12-31T13:34:10.045Z,3.15
2022-12-31T13:36:19.406Z,2.25
2022-12-31T13:38:28.624Z,2.35
2022-12-31T13:40:41.292Z,2.28
2022-12-31T13:42:57.678Z,1.50
2022-12-31T13:45:06.138Z,1.10
2022-12-31T13:47:16.793Z,1.73
2022-12-31T13:49:29.640Z,2.15
2022-12-31T13:51:44.368Z,5.32
2022-12-31T13:53:57.724Z,1.73
2022-12-31T13:56:08.787Z,3.10
2022-12-31T13:58:25.977Z,2.88
2022-12-31T14:00:38.324Z,2.10
2022-12-31T14:02:50.851Z,2.47
2022-12-31T14:05:00.665Z,4.65
2022-12-31T14:07:10.462Z,6.50
2022-12-31T14:09:20.831Z,7.03
2022-12-31T14:11:45.762Z,6.60
2022-12-31T14:14:10.330Z,3.90
2022-12-31T14:16:24.350Z,3.25
2022-12-31T14:18:39.208Z,2.75
2022-12-31T14:20:50.903Z,3.58
2022-12-31T14:23:06.566Z,3.25
2022-12-31T14:25:20.016Z,3.38
2022-12-31T14:27:31.876Z,4.32
2022-12-31T14:29:45.641Z,2.75
2022-12-31T14:32:21.851Z,2.22
2022-12-31T14:34:38.840Z,2.42
2022-12-31T14:36:53.839Z,3.88
2022-12-31T14:39:16.638Z,3.38
2022-12-31T14:41:55.552Z,3.38
2022-12-31T14:44:16.472Z,2.70
2022-12-31T14:46:32.755Z,2.50
2022-12-31T14:48:47.481Z,3.50
2022-12-31T14:50:52.899Z,6.28
2022-12-31T14:53:09.059Z,4.03
2022-12-31T14:55:27.159Z,3.38
2022-12-31T14:58:09.559Z,4.63
2022-12-31T15:00:04.914Z,3.72
2022-12-31T15:02:33.771Z,3.80
2022-12-31T15:04:48.443Z,3.67
2022-12-31T15:07:05.087Z,3.58
2022-12-31T15:09:19.808Z,3.67
2022-12-31T15:11:40.351Z,5.20
2022-12-31T15:14:04.936Z,4.85
2022-12-31T15:16:25.993Z,4.78
2022-12-31T15:18:50.659Z,5.28
2022-12-31T15:21:14.197Z,4.95
2022-12-31T15:23:24.988Z,4.18
2022-12-31T15:25:40.561Z,6.07
2022-12-31T15:27:49.961Z,6.00
2022-12-31T15:29:54.905Z,7.22
2022-12-31T15:32:01.768Z,7.78
2022-12-31T15:34:10.591Z,7.00
2022-12-31T15:36:19.550Z,7.55
2022-12-31T15:38:38.108Z,6.80
2022-12-31T15:40:46.520Z,8.55
2022-12-31T15:42:57.610Z,12.70
2022-12-31T15:45:07.867Z,11.85
2022-12-31T15:47:20.465Z,11.45
2022-12-31T15:49:29.086Z,9.73
2022-12-31T15:51:39.235Z,9.38
2022-12-31T15:53:47.099Z,10.45
2022-12-31T15:55:56.705Z,6.88
2022-12-31T15:58:07.560Z,8.18
2022-12-31T16:00:20.033Z,9.38
2022-12-31T16:02:28.532Z,7.22
2022-12-31T16:04:39.506Z,7.50
2022-12-31T16:06:50.486Z,8.50
2022-12-31T16:08:56.041Z,9.25
2022-12-31T16:11:03.228Z,8.23
2022-12-31T16:13:10.779Z,9.07
2022-12-31T16:15:24.585Z,12.85
2022-12-31T16:17:32.529Z,12.15
2022-12-31T16:19:46.268Z,9.77
2022-12-31T16:21:51.089Z,10.98
2022-12-31T16:23:57.784Z,9.82
2022-12-31T16:26:05.608Z,12.90
2022-12-31T16:28:10.491Z,9.77
2022-12-31T16:30:23.685Z,8.70
2022-12-31T16:32:29.015Z,7.43
2022-12-31T16:36:56.953Z,6.63
2022-12-31T16:39:27.663Z,8.73
2022-12-31T16:41:45.098Z,9.10
2022-12-31T16:43:51.742Z,9.02
2022-12-31T16:45:59.295Z,7.38
2022-12-31T16:48:16.349Z,8.95
2022-12-31T16:50:24.527Z,8.32
2022-12-31T16:52:37.964Z,8.85
2022-12-31T16:54:47.008Z,9.77
2022-12-31T16:56:51.931Z,11.52
2022-12-31T16:59:04.420Z,10.32
2022-12-31T17:01:16.850Z,8.40
2022-12-31T17:03:24.924Z,10.20
2022-12-31T17:05:30.562Z,12.80
2022-12-31T17:07:47.162Z,11.60
2022-12-31T17:10:03.880Z,11.55
2022-12-31T17:12:22.322Z,12.85
2022-12-31T17:14:30.577Z,10.07
2022-12-31T17:16:36.576Z,12.82
2022-12-31T17:18:41.919Z,10.93
2022-12-31T17:20:47.029Z,10.02
2022-12-31T17:25:04.690Z,12.57
2022-12-31T17:27:11.454Z,11.23
2022-12-31T17:29:26.275Z,11.10
2022-12-31T17:31:35.314Z,10.73
2022-12-31T17:33:40.523Z,9.43
2022-12-31T17:35:47.390Z,10.07
2022-12-31T17:37:55.097Z,11.32
2022-12-31T17:40:24.971Z,11.85
2022-12-31T17:42:34.821Z,11.02
2022-12-31T17:44:42.638Z,11.52
2022-12-31T17:46:51.010Z,12.38
2022-12-31T17:49:00.560Z,17.23
2022-12-31T17:51:05.864Z,17.08
2022-12-31T17:53:15.748Z,14.27
2022-12-31T17:55:20.664Z,13.13
2022-12-31T17:57:30.417Z,16.88
2022-12-31T17:59:37.259Z,14.98
2022-12-31T18:01:42.348Z,16.23
2022-12-31T18:03:47.925Z,16.33
2022-12-31T18:05:55.043Z,15.77
2022-12-31T18:07:59.967Z,17.63
2022-12-31T18:10:08.015Z,16.55
2022-12-31T18:12:16.850Z,17.05
2022-12-31T18:14:21.625Z,18.17
2022-12-31T18:16:29.310Z,18.77
2022-12-31T18:18:40.004Z,42.83
2022-12-31T18:20:44.909Z,40.35
2022-12-31T18:22:49.869Z,30.60
2022-12-31T18:24:56.971Z,22.80
2022-12-31T18:27:08.876Z,17.50
2022-12-31T18:41:57.004Z,12.87
2022-12-31T18:44:01.904Z,14.52
2022-12-31T18:46:07.096Z,17.63
2022-12-31T18:48:13.378Z,14.88
2022-12-31T18:50:20.400Z,15.85
2022-12-31T18:52:25.769Z,20.70
2022-12-31T18:54:30.546Z,16.92
2022-12-31T18:56:35.394Z,17.85
2022-12-31T18:58:43.238Z,19.20
2022-12-31T19:00:51.268Z,22.08
2022-12-31T19:02:56.273Z,20.05
2022-12-31T19:07:08.089Z,17.00
2022-12-31T19:09:30.674Z,18.23
2022-12-31T19:11:38.519Z,17.83
2022-12-31T19:13:45.909Z,18.23
2022-12-31T19:15:52.577Z,16.98
2022-12-31T19:17:57.487Z,19.65
2022-12-31T19:20:06.744Z,16.38
2022-12-31T19:22:17.980Z,14.18
2022-12-31T19:24:27.246Z,15.50
2022-12-31T19:26:32.828Z,17.27
2022-12-31T19:28:38.732Z,14.27
2022-12-31T19:30:46.693Z,18.13
2022-12-31T19:32:51.649Z,15.40
2022-12-31T19:34:56.741Z,14.95
2022-12-31T19:37:01.713Z,15.02
2022-12-31T19:39:06.956Z,15.18
2022-12-31T19:43:23.706Z,15.57
2022-12-31T19:45:30.198Z,15.93
2022-12-31T19:47:38.292Z,18.25
2022-12-31T19:49:43.182Z,20.17
2022-12-31T19:51:48.002Z,15.93
2022-12-31T19:53:53.155Z,17.27
2022-12-31T19:58:02.687Z,17.35
2022-12-31T20:00:09.231Z,16.45
2022-12-31T20:02:17.312Z,18.73
2022-12-31T20:04:24.896Z,17.55
2022-12-31T20:06:29.790Z,15.75
2022-12-31T20:08:34.736Z,16.20
2022-12-31T20:10:39.742Z,13.10
2022-12-31T20:12:44.941Z,17.13
2022-12-31T20:16:56.184Z,18.42
2022-12-31T20:19:01.003Z,18.95
2022-12-31T20:21:12.559Z,16.80
2022-12-31T20:23:17.430Z,15.20
2022-12-31T20:25:22.318Z,18.58
2022-12-31T20:27:27.326Z,19.75
2022-12-31T20:29:32.213Z,21.35
2022-12-31T20:31:37.180Z,18.10
2022-12-31T20:33:42.408Z,15.98
2022-12-31T20:35:49.327Z,17.10
2022-12-31T20:37:56.815Z,13.88
2022-12-31T20:40:01.775Z,13.85
2022-12-31T20:42:07.233Z,15.10
2022-12-31T20:44:12.373Z,21.60
2022-12-31T20:48:24.114Z,19.83
2022-12-31T20:50:29.022Z,18.83
2022-12-31T20:52:33.892Z,21.55
2022-12-31T20:54:41.464Z,24.40
2022-12-31T20:56:46.585Z,24.70
2022-12-31T20:58:51.639Z,19.67
2022-12-31T21:00:56.724Z,18.13
2022-12-31T21:05:23.988Z,16.40
2022-12-31T21:07:29.048Z,15.02
2022-12-31T21:09:33.958Z,15.02
2022-12-31T21:11:53.993Z,13.85
2022-12-31T21:14:02.664Z,12.57
2022-12-31T21:16:11.136Z,12.63
2022-12-31T21:18:16.071Z,16.40
2022-12-31T21:20:21.630Z,20.40
2022-12-31T21:22:26.596Z,22.10
2022-12-31T21:24:31.563Z,18.98
2022-12-31T21:26:36.646Z,25.98
2022-12-31T21:30:49.156Z,17.75
2022-12-31T21:35:31.537Z,18.20
2022-12-31T21:37:24.035Z,13.63
2022-12-31T21:39:28.960Z,15.32
2022-12-31T21:41:46.568Z,14.80
2022-12-31T21:43:56.395Z,14.77
2022-12-31T21:46:05.812Z,16.38
2022-12-31T21:48:25.097Z,18.15
2022-12-31T21:50:30.177Z,21.88
2022-12-31T21:52:35.641Z,19.27
2022-12-31T21:54:53.101Z,20.38
2022-12-31T21:56:58.143Z,19.40
2022-12-31T21:59:21.461Z,19.75
2022-12-31T22:01:39.002Z,19.20
2022-12-31T22:03:44.268Z,16.90
2022-12-31T22:07:55.216Z,18.50
2022-12-31T22:10:00.523Z,20.20
2022-12-31T22:14:13.348Z,51.05
2022-12-31T22:16:20.329Z,25.48
2022-12-31T22:18:25.638Z,44.55
2022-12-31T22:20:30.697Z,21.23
2022-12-31T22:22:35.598Z,19.20
2022-12-31T22:24:42.824Z,19.05
2022-12-31T22:26:47.828Z,14.93
2022-12-31T22:28:53.243Z,16.02
2022-12-31T22:31:01.073Z,17.23
2022-12-31T22:33:06.321Z,17.33
2022-12-31T22:37:46.426Z,18.20
2022-12-31T22:39:43.482Z,22.67
2022-12-31T22:41:49.816Z,20.23
2022-12-31T22:44:03.828Z,20.00
2022-12-31T22:46:20.164Z,20.35
2022-12-31T22:48:25.484Z,26.65
2022-12-31T22:52:36.958Z,44.78
2022-12-31T22:54:42.064Z,41.95
2022-12-31T22:58:52.007Z,97.88
2022-12-31T23:00:57.628Z,130.88
2022-12-31T23:03:05.462Z,241.90
2022-12-31T23:05:14.939Z,287.58
2022-12-31T23:07:24.322Z,332.02
2022-12-31T23:09:41.785Z,372.60
2022-12-31T23:11:46.951Z,360.38
2022-12-31T23:14:06.504Z,385.00
2022-12-31T23:16:24.254Z,455.92
2022-12-31T23:18:44.346Z,474.38
2022-12-31T23:21:01.861Z,446.13
2022-12-31T23:23:14.319Z,417.25
2022-12-31T23:25:20.916Z,383.40
2022-12-31T23:27:25.884Z,383.52
2022-12-31T23:29:30.991Z,302.58
2022-12-31T23:33:43.510Z,262.48
2022-12-31T23:35:49.067Z,197.57
2022-12-31T23:37:54.282Z,151.90
2022-12-31T23:42:06.876Z,127.65
2022-12-31T23:44:13.237Z,120.85
2022-12-31T23:46:19.582Z,119.47
2022-12-31T23:48:24.597Z,100.05
2022-12-31T23:52:37.769Z,103.97
2022-12-31T23:54:43.028Z,87.40
2022-12-31T23:56:48.014Z,74.80
2022-12-31T23:58:56.756Z,83.55
